Terminal Aerodrome Forecast
Issued by NWS

Home | Current Version | Previous Version | Text Only | Print | Product List | Glossary On
Versions: 1 2 3 4 5 6 7 8 9 10 11 12 13 14 15
000
FTUS44 KCRP 111147
TAFLRD
TAF
KLRD 111147Z 1112/1212 VRB03KT 3SM BR OVC003 WS020/18040KT
     FM111500 VRB02KT 5SM BR OVC009 WS020/18040KT
      TEMPO 1116/1119 BKN012
     FM111900 16008KT P6SM BKN035
     FM120000 13005KT P6SM SCT050
     FM120600 VRB02KT 3SM BR FEW003
     FM120900 VRB02KT 1/2SM FG OVC003=

USA.gov is the U.S. government's official web portal to all federal, state and local government web resources and services.